createdAt,value
2019-01-26T12:12:57.580Z,7.53
2019-01-26T12:15:26.001Z,7.40
2019-01-26T12:17:54.444Z,8.90
2019-01-26T12:20:22.872Z,8.50
2019-01-26T12:22:51.642Z,8.45
2019-01-26T12:25:20.424Z,8.05
2019-01-26T12:27:48.879Z,7.78
2019-01-26T12:32:13.714Z,5.70
2019-01-26T12:34:42.225Z,4.65
2019-01-26T12:37:10.656Z,6.58
2019-01-26T12:39:39.086Z,6.35
2019-01-26T12:42:07.841Z,8.33
2019-01-26T12:44:36.529Z,9.60
2019-01-26T12:47:05.072Z,9.98
2019-01-26T12:49:33.552Z,11.83
2019-01-26T12:52:02.278Z,10.75
2019-01-26T12:54:30.700Z,11.63
2019-01-26T12:56:59.542Z,11.68
2019-01-26T12:59:27.969Z,13.85
2019-01-26T13:01:56.714Z,14.50
2019-01-26T13:04:26.415Z,12.78
2019-01-26T13:06:54.985Z,14.05
2019-01-26T13:09:23.786Z,13.40
2019-01-26T13:11:52.611Z,14.85
2019-01-26T13:14:21.061Z,15.35
2019-01-26T13:16:50.056Z,14.03
2019-01-26T13:19:18.518Z,16.15
2019-01-26T13:21:47.221Z,14.65
2019-01-26T13:24:15.682Z,15.30
2019-01-26T13:26:44.381Z,15.88
2019-01-26T13:29:13.178Z,18.23
2019-01-26T13:31:41.878Z,21.82
2019-01-26T13:34:10.648Z,22.55
2019-01-26T13:36:39.070Z,27.40
2019-01-26T13:39:09.511Z,24.70
2019-01-26T13:41:38.306Z,26.40
2019-01-26T13:44:06.788Z,26.37
2019-01-26T13:46:35.510Z,30.52
2019-01-26T13:49:04.205Z,27.05
2019-01-26T13:51:34.047Z,27.15
2019-01-26T13:54:02.566Z,30.32
2019-01-26T13:56:30.998Z,26.68
2019-01-26T13:58:59.454Z,31.12
2019-01-26T14:01:27.938Z,21.27
2019-01-26T14:03:56.365Z,23.15
2019-01-26T14:06:26.836Z,28.25
2019-01-26T14:08:55.307Z,19.25
2019-01-26T14:11:23.737Z,18.67
2019-01-26T14:13:52.483Z,18.92
2019-01-26T14:16:21.226Z,18.00
2019-01-26T14:18:49.672Z,18.48
2019-01-26T14:21:18.580Z,16.73
2019-01-26T14:23:47.029Z,15.95
2019-01-26T14:26:15.483Z,18.30
2019-01-26T14:28:43.934Z,16.30
2019-01-26T14:31:12.502Z,19.85
2019-01-26T14:33:41.301Z,17.23
2019-01-26T14:36:09.752Z,21.33
2019-01-26T14:38:38.419Z,20.52
2019-01-26T14:41:07.217Z,20.97
2019-01-26T14:43:35.650Z,23.38
2019-01-26T14:46:05.006Z,22.45
2019-01-26T14:48:33.896Z,24.70
2019-01-26T14:51:02.674Z,25.60
2019-01-26T14:53:31.806Z,26.48
2019-01-26T14:56:00.515Z,29.92
2019-01-26T14:58:28.951Z,30.77
2019-01-26T15:00:57.397Z,33.45
2019-01-26T15:03:26.342Z,35.78
2019-01-26T15:05:55.000Z,38.67
2019-01-26T15:08:23.443Z,41.23
2019-01-26T15:10:51.966Z,46.25
2019-01-26T15:13:20.935Z,45.05
2019-01-26T15:15:49.379Z,41.42
2019-01-26T15:18:17.809Z,45.20
2019-01-26T15:20:46.261Z,44.98
2019-01-26T15:23:14.716Z,45.38
2019-01-26T15:25:43.444Z,46.23
2019-01-26T15:28:12.127Z,50.05
2019-01-26T15:30:42.524Z,47.13
2019-01-26T15:33:11.548Z,49.90
2019-01-26T15:35:40.019Z,45.23
2019-01-26T15:38:09.969Z,52.05
2019-01-26T15:40:38.499Z,54.08
2019-01-26T15:43:06.951Z,47.30
2019-01-26T15:45:38.442Z,49.85
2019-01-26T15:48:07.386Z,47.88
2019-01-26T15:50:36.131Z,52.10
2019-01-26T15:53:04.672Z,50.60
2019-01-26T15:55:33.443Z,42.13
2019-01-26T15:58:01.888Z,48.48
2019-01-26T16:00:33.231Z,44.08
2019-01-26T16:03:01.818Z,40.50
2019-01-26T16:05:30.532Z,40.90
2019-01-26T16:07:59.406Z,39.33
2019-01-26T16:10:28.187Z,32.90
2019-01-26T16:12:56.628Z,35.48
2019-01-26T16:15:27.333Z,47.83
2019-01-26T16:17:55.859Z,35.10
2019-01-26T16:20:24.323Z,32.13
2019-01-26T16:22:52.805Z,33.98
2019-01-26T16:25:21.448Z,35.92
2019-01-26T16:27:49.910Z,30.77
2019-01-26T16:30:40.073Z,36.00
2019-01-26T16:33:08.875Z,31.73
2019-01-26T16:35:37.680Z,51.08
2019-01-26T16:38:06.174Z,33.67
2019-01-26T16:40:35.951Z,37.78
2019-01-26T16:43:05.597Z,30.95
2019-01-26T16:45:37.583Z,29.92
2019-01-26T16:50:34.806Z,30.17
2019-01-26T16:53:03.617Z,29.02
2019-01-26T16:55:32.186Z,28.50
2019-01-26T16:58:00.949Z,24.60
2019-01-26T17:00:41.055Z,25.77
2019-01-26T17:03:09.796Z,26.87
2019-01-26T17:05:38.591Z,26.37
2019-01-26T17:08:07.888Z,27.65
2019-01-26T17:10:36.591Z,24.63
2019-01-26T17:13:05.311Z,23.50
2019-01-26T17:15:33.851Z,24.67
2019-01-26T17:18:02.658Z,27.58
2019-01-26T17:20:35.088Z,27.13
2019-01-26T17:23:02.665Z,26.80
2019-01-26T17:25:31.655Z,27.50
2019-01-26T17:28:00.100Z,31.05
2019-01-26T17:30:35.661Z,25.45
2019-01-26T17:33:07.657Z,25.90
2019-01-26T17:35:37.349Z,27.93
2019-01-26T17:38:06.490Z,34.95
2019-01-26T17:40:36.221Z,25.10
2019-01-26T17:43:06.940Z,29.40
2019-01-26T17:45:35.681Z,26.70
2019-01-26T17:48:06.441Z,27.42
2019-01-26T17:50:41.883Z,26.97
2019-01-26T17:53:05.807Z,30.65
2019-01-26T17:55:34.519Z,24.15
2019-01-26T17:58:03.423Z,21.20
2019-01-26T18:00:39.726Z,20.43
2019-01-26T18:03:10.075Z,21.68
2019-01-26T18:05:38.512Z,23.85
2019-01-26T18:08:07.412Z,19.35
2019-01-26T18:10:36.116Z,18.77
2019-01-26T18:13:04.575Z,18.42
2019-01-26T18:15:33.016Z,18.23
2019-01-26T18:18:01.738Z,18.80
2019-01-26T18:20:32.090Z,18.60
2019-01-26T18:23:01.765Z,35.08
2019-01-26T18:25:33.258Z,19.32
2019-01-26T18:28:03.311Z,33.40
2019-01-26T18:30:32.398Z,26.60
2019-01-26T18:33:00.949Z,19.02
2019-01-26T18:35:29.624Z,19.98
2019-01-26T18:37:58.064Z,17.50
2019-01-26T18:40:27.039Z,23.52
2019-01-26T18:42:55.480Z,22.95
2019-01-26T18:45:25.380Z,24.63
2019-01-26T18:47:54.148Z,22.42
2019-01-26T18:50:25.567Z,14.85
2019-01-26T18:52:54.243Z,24.95
2019-01-26T18:55:23.039Z,18.30
2019-01-26T18:57:51.811Z,18.80
2019-01-26T19:00:22.618Z,21.20
2019-01-26T19:02:55.141Z,29.98
2019-01-26T19:05:23.614Z,22.65
2019-01-26T19:07:52.304Z,37.95
2019-01-26T19:10:20.768Z,42.60
2019-01-26T19:12:49.220Z,27.07
2019-01-26T19:15:19.939Z,25.72
2019-01-26T19:17:48.378Z,22.62
2019-01-26T19:20:16.830Z,28.75
2019-01-26T19:22:45.550Z,29.52
2019-01-26T19:25:15.785Z,19.10
2019-01-26T19:27:44.761Z,15.15
2019-01-26T19:30:15.311Z,15.35
2019-01-26T19:32:44.076Z,14.73
2019-01-26T19:35:12.530Z,14.90
2019-01-26T19:37:40.961Z,17.10
2019-01-26T19:40:12.931Z,17.57
2019-01-26T19:42:41.458Z,16.87
2019-01-26T19:45:11.863Z,16.85
2019-01-26T19:47:40.594Z,18.05
2019-01-26T19:50:11.360Z,22.17
2019-01-26T19:52:39.811Z,19.15
2019-01-26T19:55:08.322Z,18.92
2019-01-26T19:57:36.771Z,33.08
2019-01-26T20:00:07.204Z,43.68
2019-01-26T20:02:35.657Z,50.28
2019-01-26T20:05:04.920Z,44.38
2019-01-26T20:07:33.614Z,28.73
2019-01-26T20:10:02.515Z,34.85
2019-01-26T20:12:30.925Z,25.15
2019-01-26T20:14:59.720Z,33.80
2019-01-26T20:17:28.408Z,31.57
2019-01-26T20:19:57.198Z,25.92
2019-01-26T20:22:28.322Z,25.35
2019-01-26T20:24:56.774Z,20.82
2019-01-26T20:27:25.507Z,21.00
2019-01-26T20:29:54.035Z,23.87
2019-01-26T20:32:24.062Z,18.85
2019-01-26T20:34:52.787Z,21.30
2019-01-26T20:37:21.217Z,20.17
2019-01-26T20:39:49.950Z,21.50
2019-01-26T20:42:18.767Z,20.12
2019-01-26T20:44:47.220Z,52.35
2019-01-26T20:47:15.972Z,22.37
2019-01-26T20:49:44.406Z,24.32
2019-01-26T20:52:12.861Z,44.18
2019-01-26T20:54:41.311Z,32.30
2019-01-26T20:57:09.753Z,51.95
2019-01-26T20:59:38.221Z,39.95
2019-01-26T21:02:07.006Z,33.53
2019-01-26T21:04:35.692Z,39.88
2019-01-26T21:07:04.467Z,34.25
2019-01-26T21:09:32.926Z,20.25
2019-01-26T21:12:01.949Z,57.48
2019-01-26T21:14:30.738Z,20.00
2019-01-26T21:16:59.188Z,34.08
2019-01-26T21:19:27.624Z,21.93
2019-01-26T21:21:56.408Z,21.70
2019-01-26T21:24:25.172Z,27.00
2019-01-26T21:26:53.607Z,21.75
2019-01-26T21:29:22.048Z,21.02
2019-01-26T21:31:50.507Z,23.98
2019-01-26T21:34:19.297Z,18.17
2019-01-26T21:36:47.742Z,18.02
2019-01-26T21:39:16.773Z,17.80
2019-01-26T21:41:45.450Z,17.77
2019-01-26T21:44:13.893Z,22.45
2019-01-26T21:46:42.347Z,30.85
2019-01-26T21:49:11.202Z,45.48
2019-01-26T21:51:39.659Z,29.00
2019-01-26T21:54:08.374Z,20.68
2019-01-26T21:56:37.199Z,22.75
2019-01-26T21:59:05.638Z,17.42
2019-01-26T22:01:34.430Z,20.48
2019-01-26T22:04:03.108Z,18.20
2019-01-26T22:06:31.558Z,17.20
2019-01-26T22:09:00.311Z,23.73
2019-01-26T22:11:28.755Z,33.50
2019-01-26T22:13:57.187Z,16.48
2019-01-26T22:16:25.622Z,17.87
2019-01-26T22:18:54.056Z,18.42
2019-01-26T22:21:22.498Z,36.05
2019-01-26T22:23:50.977Z,16.62
2019-01-26T22:26:19.972Z,17.65
2019-01-26T22:28:48.397Z,34.33
2019-01-26T22:31:16.900Z,40.48
2019-01-26T22:33:45.359Z,19.05
2019-01-26T22:36:14.058Z,18.20
2019-01-26T22:38:42.496Z,15.05
2019-01-26T22:41:10.937Z,18.05
2019-01-26T22:43:39.690Z,16.23
2019-01-26T22:46:08.503Z,15.40
2019-01-26T22:48:36.991Z,15.70
2019-01-26T22:51:05.413Z,15.63
2019-01-26T22:53:34.180Z,28.85
2019-01-26T22:56:02.631Z,15.28
2019-01-26T22:58:31.130Z,12.95
2019-01-26T23:01:03.720Z,14.38
2019-01-26T23:04:00.074Z,14.00
2019-01-26T23:06:35.651Z,14.53
2019-01-26T23:09:12.498Z,12.50
2019-01-26T23:12:05.419Z,11.50
2019-01-26T23:15:18.568Z,12.75
2019-01-26T23:18:06.914Z,20.65
2019-01-26T23:21:05.477Z,11.50
2019-01-26T23:23:54.745Z,9.85
2019-01-26T23:27:16.405Z,30.48
2019-01-26T23:30:02.458Z,28.38
2019-01-26T23:32:30.910Z,17.62
2019-01-26T23:34:59.350Z,10.40
2019-01-26T23:37:28.417Z,9.83
2019-01-26T23:39:56.850Z,13.00
2019-01-26T23:42:25.584Z,16.40
2019-01-26T23:44:54.031Z,14.65
2019-01-26T23:47:22.750Z,27.87
2019-01-26T23:49:51.543Z,21.02
2019-01-26T23:52:19.988Z,21.33
2019-01-26T23:54:48.435Z,42.67
2019-01-26T23:57:17.431Z,11.97
2019-01-26T23:59:46.147Z,53.23
